createdAt,value
2023-05-20T00:00:00.436Z,206.37
2023-05-20T00:01:00.478Z,197.10
2023-05-20T00:02:00.485Z,186.51
2023-05-20T00:03:00.540Z,186.12
2023-05-20T00:04:00.667Z,178.06
2023-05-20T00:05:00.678Z,163.90
2023-05-20T00:06:00.560Z,161.43
2023-05-20T00:07:00.585Z,168.04
2023-05-20T00:08:00.643Z,176.04
2023-05-20T00:09:00.688Z,172.84
2023-05-20T00:10:00.683Z,178.77
2023-05-20T00:11:00.702Z,187.73
2023-05-20T00:12:00.767Z,195.99
2023-05-20T00:13:00.807Z,195.66
2023-05-20T00:14:00.829Z,195.17
2023-05-20T00:15:00.845Z,200.73
2023-05-20T00:16:00.898Z,200.54
2023-05-20T00:17:00.938Z,202.31
2023-05-20T00:18:01.011Z,200.42
2023-05-20T00:19:01.004Z,202.97
2023-05-20T00:20:01.063Z,202.82
2023-05-20T00:21:01.070Z,208.75
2023-05-20T00:22:01.142Z,212.98
2023-05-20T00:23:01.209Z,215.38
2023-05-20T00:24:01.229Z,212.46
2023-05-20T00:25:01.302Z,205.94
2023-05-20T00:26:01.333Z,201.33
2023-05-20T00:27:01.390Z,201.02
2023-05-20T00:28:01.387Z,202.17
2023-05-20T00:29:01.428Z,207.21
2023-05-20T00:30:01.480Z,208.85
2023-05-20T00:31:01.545Z,209.73
2023-05-20T00:32:01.745Z,209.97
2023-05-20T00:33:01.747Z,218.63
2023-05-20T00:34:01.730Z,223.37
2023-05-20T00:35:01.741Z,214.72
2023-05-20T00:36:01.737Z,210.53
2023-05-20T00:37:01.752Z,211.53
2023-05-20T00:38:01.757Z,214.98
2023-05-20T00:39:01.777Z,214.81
2023-05-20T00:40:01.810Z,213.81
2023-05-20T00:41:01.772Z,216.31
2023-05-20T00:42:01.793Z,219.58
2023-05-20T00:43:01.797Z,217.98
2023-05-20T00:44:01.796Z,207.95
2023-05-20T00:45:01.807Z,203.38
2023-05-20T00:46:01.872Z,203.74
2023-05-20T00:47:01.858Z,201.73
2023-05-20T00:48:01.921Z,207.41
2023-05-20T00:49:01.954Z,215.17
2023-05-20T00:50:02.106Z,226.55
2023-05-20T00:51:02.104Z,231.39
2023-05-20T00:52:02.153Z,234.86
2023-05-20T00:53:02.212Z,237.94
2023-05-20T00:54:03.304Z,243.42
2023-05-20T00:55:02.227Z,246.93
2023-05-20T00:56:02.251Z,241.62
2023-05-20T00:57:02.231Z,240.37
2023-05-20T00:58:02.210Z,241.07
2023-05-20T00:59:02.284Z,238.00
2023-05-20T01:00:02.447Z,236.55
2023-05-20T01:01:02.437Z,229.75
2023-05-20T01:02:02.482Z,228.57
2023-05-20T01:03:02.553Z,225.07
2023-05-20T01:04:02.436Z,221.16
2023-05-20T01:05:02.484Z,219.28
2023-05-20T01:06:02.462Z,221.13
2023-05-20T01:07:02.473Z,225.01
2023-05-20T01:08:02.490Z,223.37
2023-05-20T01:09:03.308Z,214.14
2023-05-20T01:10:02.564Z,200.76
2023-05-20T01:11:02.551Z,192.31
2023-05-20T01:12:02.533Z,197.53
2023-05-20T01:13:02.592Z,191.43
2023-05-20T01:14:02.598Z,182.96
2023-05-20T01:15:02.648Z,174.49
2023-05-20T01:16:02.686Z,167.55
2023-05-20T01:17:02.670Z,170.77
2023-05-20T01:18:02.746Z,169.39
2023-05-20T01:19:02.717Z,174.20
2023-05-20T01:20:02.739Z,180.24
2023-05-20T01:21:02.778Z,190.02
2023-05-20T01:22:02.796Z,195.84
2023-05-20T01:23:02.826Z,203.19
2023-05-20T01:24:02.840Z,211.24
2023-05-20T01:25:02.894Z,218.56
2023-05-20T01:26:02.935Z,225.46
2023-05-20T01:27:02.956Z,222.82
2023-05-20T01:28:02.995Z,201.28
2023-05-20T01:29:03.020Z,195.71
2023-05-20T01:30:03.134Z,178.67
2023-05-20T01:31:03.227Z,174.04
2023-05-20T01:32:03.185Z,176.56
2023-05-20T01:33:03.283Z,174.79
2023-05-20T01:34:03.234Z,182.74
2023-05-20T01:35:03.322Z,190.98
2023-05-20T01:36:03.360Z,185.07
2023-05-20T01:37:03.409Z,178.67
2023-05-20T01:38:03.413Z,181.62
2023-05-20T01:39:03.443Z,173.63
2023-05-20T01:40:03.531Z,170.34
2023-05-20T01:41:03.570Z,177.20
2023-05-20T01:42:03.646Z,182.96
2023-05-20T01:43:03.683Z,185.55
2023-05-20T01:44:03.729Z,178.82
2023-05-20T01:45:03.779Z,182.73
2023-05-20T01:46:03.832Z,185.01
2023-05-20T01:47:03.918Z,176.88
2023-05-20T01:48:03.922Z,169.69
2023-05-20T01:49:03.908Z,169.83
2023-05-20T01:50:03.989Z,174.27
2023-05-20T01:51:04.014Z,174.45
2023-05-20T01:52:04.029Z,176.63
2023-05-20T01:53:04.079Z,181.67
2023-05-20T01:54:04.118Z,190.80
2023-05-20T01:55:04.164Z,202.31
2023-05-20T01:56:04.190Z,205.51
2023-05-20T01:57:04.227Z,208.84
2023-05-20T01:58:04.269Z,212.67
2023-05-20T01:59:04.301Z,214.25
2023-05-20T02:00:04.332Z,217.50
2023-05-20T02:01:04.444Z,225.81
2023-05-20T02:02:04.512Z,235.19
2023-05-20T02:03:04.520Z,244.08
2023-05-20T02:04:04.531Z,248.44
2023-05-20T02:05:04.657Z,250.00
2023-05-20T02:06:04.669Z,248.21
2023-05-20T02:07:04.682Z,250.00
2023-05-20T02:08:04.769Z,249.23
2023-05-20T02:09:04.806Z,250.69
2023-05-20T02:10:04.879Z,250.00
2023-05-20T02:11:04.920Z,247.14
2023-05-20T02:12:04.940Z,239.18
2023-05-20T02:13:06.239Z,235.34
2023-05-20T02:14:05.025Z,233.88
2023-05-20T02:15:05.240Z,230.77
2023-05-20T02:16:05.206Z,229.10
2023-05-20T02:17:05.237Z,230.04
2023-05-20T02:18:05.314Z,230.44
2023-05-20T02:19:05.407Z,227.16
2023-05-20T02:20:05.451Z,228.26
2023-05-20T02:21:05.457Z,226.04
2023-05-20T02:22:05.495Z,223.53
2023-05-20T02:23:05.569Z,222.66
2023-05-20T02:24:05.585Z,222.20
2023-05-20T02:25:05.719Z,224.35
2023-05-20T02:26:05.703Z,227.34
2023-05-20T02:27:05.804Z,229.97
2023-05-20T02:28:05.853Z,234.32
2023-05-20T02:29:05.889Z,237.64
2023-05-20T02:30:05.956Z,240.11
2023-05-20T02:31:05.972Z,243.06
2023-05-20T02:32:06.052Z,245.00
2023-05-20T02:33:06.194Z,243.35
2023-05-20T02:34:06.217Z,242.63
2023-05-20T02:35:06.278Z,237.20
2023-05-20T02:36:06.298Z,235.17
2023-05-20T02:37:06.334Z,228.63
2023-05-20T02:38:06.416Z,228.59
2023-05-20T02:39:06.459Z,224.76
2023-05-20T02:40:06.523Z,223.99
2023-05-20T02:41:06.558Z,224.77
2023-05-20T02:42:06.597Z,223.14
2023-05-20T02:43:06.684Z,230.95
2023-05-20T02:44:06.742Z,235.75
2023-05-20T02:45:06.846Z,235.74
2023-05-20T02:46:06.884Z,234.71
2023-05-20T02:47:06.909Z,230.98
2023-05-20T02:48:07.107Z,229.96
2023-05-20T02:49:06.992Z,231.32
2023-05-20T02:50:07.156Z,232.33
2023-05-20T02:51:07.127Z,232.40
2023-05-20T02:52:07.162Z,230.57
2023-05-20T02:53:07.272Z,232.65
2023-05-20T02:54:07.284Z,231.36
2023-05-20T02:55:07.677Z,231.56
2023-05-20T02:56:07.385Z,222.40
2023-05-20T02:57:07.387Z,224.68
2023-05-20T02:58:07.465Z,229.33
2023-05-20T02:59:07.859Z,233.79
2023-05-20T03:00:07.637Z,238.85
2023-05-20T03:01:07.664Z,243.63
2023-05-20T03:02:07.744Z,246.43
2023-05-20T03:03:07.869Z,247.72
2023-05-20T03:04:07.831Z,245.27
2023-05-20T03:05:07.876Z,242.57
2023-05-20T03:06:07.921Z,240.10
2023-05-20T03:07:07.989Z,237.53
2023-05-20T03:08:08.051Z,237.72
2023-05-20T03:09:08.098Z,236.66
2023-05-20T03:10:08.195Z,232.07
2023-05-20T03:11:08.271Z,229.27
2023-05-20T03:12:08.272Z,231.28
2023-05-20T03:13:08.310Z,233.73
2023-05-20T03:14:08.394Z,231.70
2023-05-20T03:15:08.402Z,227.81
2023-05-20T03:16:08.513Z,229.76
2023-05-20T03:17:08.457Z,232.90
2023-05-20T03:18:08.650Z,238.81
2023-05-20T03:19:08.619Z,241.93
2023-05-20T03:20:08.601Z,246.12
2023-05-20T03:21:08.638Z,249.71
2023-05-20T03:22:08.720Z,250.00
2023-05-20T03:23:08.790Z,249.91
2023-05-20T03:24:08.788Z,249.52
2023-05-20T03:25:08.830Z,249.68
2023-05-20T03:26:08.887Z,250.00
2023-05-20T03:27:08.923Z,249.79
2023-05-20T03:28:08.994Z,250.00
2023-05-20T03:29:09.050Z,249.96
2023-05-20T03:30:09.059Z,249.05
2023-05-20T03:31:09.201Z,247.54
2023-05-20T03:32:10.809Z,247.71
2023-05-20T03:33:09.242Z,247.69
2023-05-20T03:34:09.362Z,248.36
2023-05-20T03:35:09.315Z,249.92
2023-05-20T03:36:09.424Z,249.21
2023-05-20T03:37:09.390Z,248.95
2023-05-20T03:38:09.468Z,247.79
2023-05-20T03:39:09.517Z,246.27
2023-05-20T03:40:09.534Z,248.81
2023-05-20T03:41:09.637Z,247.93
2023-05-20T03:42:09.705Z,245.33
2023-05-20T03:43:09.732Z,241.12
2023-05-20T03:44:09.789Z,235.63
2023-05-20T03:45:09.806Z,234.02
2023-05-20T03:46:09.889Z,237.21
2023-05-20T03:47:09.885Z,239.05
2023-05-20T03:48:09.914Z,237.67
2023-05-20T03:49:09.951Z,237.20
2023-05-20T03:50:09.998Z,235.85
2023-05-20T03:51:10.010Z,234.61
2023-05-20T03:52:10.087Z,234.57
2023-05-20T03:53:10.113Z,238.32
2023-05-20T03:54:10.147Z,238.40
2023-05-20T03:55:10.175Z,233.01
2023-05-20T03:56:10.215Z,231.40
2023-05-20T03:57:10.209Z,230.34
2023-05-20T03:58:10.254Z,228.80
2023-05-20T03:59:10.272Z,227.86
2023-05-20T04:00:10.345Z,229.61
2023-05-20T04:01:10.377Z,229.35
2023-05-20T04:02:10.436Z,228.95
2023-05-20T04:03:10.539Z,228.60
2023-05-20T04:04:10.527Z,226.68
2023-05-20T04:05:10.528Z,222.81
2023-05-20T04:06:10.580Z,219.95
2023-05-20T04:07:10.621Z,216.56
2023-05-20T04:08:10.663Z,220.54
2023-05-20T04:09:10.698Z,223.43
2023-05-20T04:10:10.765Z,209.02
2023-05-20T04:11:10.777Z,200.39
2023-05-20T04:12:10.837Z,204.45
2023-05-20T04:13:10.829Z,209.60
2023-05-20T04:14:10.862Z,212.05
2023-05-20T04:15:10.869Z,214.65
2023-05-20T04:16:10.906Z,218.62
2023-05-20T04:17:10.977Z,218.67
2023-05-20T04:18:11.082Z,219.51
2023-05-20T04:19:11.051Z,221.87
2023-05-20T04:20:11.017Z,221.70
2023-05-20T04:21:11.098Z,219.83
2023-05-20T04:22:11.122Z,214.08
2023-05-20T04:23:11.157Z,217.73
2023-05-20T04:24:11.236Z,220.14
2023-05-20T04:25:11.187Z,221.07
2023-05-20T04:26:11.254Z,222.72
2023-05-20T04:27:11.288Z,225.40
2023-05-20T04:28:11.361Z,227.69
2023-05-20T04:29:11.383Z,219.52
2023-05-20T04:30:11.403Z,218.03
2023-05-20T04:31:11.427Z,219.58
2023-05-20T04:32:11.501Z,225.18
2023-05-20T04:33:11.533Z,230.61
2023-05-20T04:34:11.518Z,234.49
2023-05-20T04:35:11.604Z,236.36
2023-05-20T04:36:11.643Z,239.52
2023-05-20T04:37:11.692Z,239.93
2023-05-20T04:38:11.749Z,234.76
2023-05-20T04:39:11.804Z,229.03
2023-05-20T04:40:11.884Z,231.15
2023-05-20T04:41:11.945Z,233.17
2023-05-20T04:42:12.018Z,233.59
2023-05-20T04:43:12.083Z,232.00
2023-05-20T04:44:12.106Z,231.54
2023-05-20T04:45:12.195Z,230.41
2023-05-20T04:46:12.262Z,229.54
2023-05-20T04:47:12.291Z,228.35
2023-05-20T04:48:12.329Z,226.35
2023-05-20T04:49:12.375Z,221.46
2023-05-20T04:50:12.397Z,218.54
2023-05-20T04:51:12.417Z,220.28
2023-05-20T04:52:12.440Z,223.24
2023-05-20T04:53:12.460Z,224.45
2023-05-20T04:54:12.499Z,229.60
2023-05-20T04:55:12.488Z,234.26
2023-05-20T04:56:12.563Z,234.09
2023-05-20T04:57:12.576Z,235.95
2023-05-20T04:58:12.644Z,233.94
2023-05-20T04:59:12.688Z,236.73
2023-05-20T05:00:12.831Z,240.71
2023-05-20T05:01:12.815Z,241.35
2023-05-20T05:02:12.822Z,236.76
2023-05-20T05:03:12.886Z,239.81
2023-05-20T05:04:12.966Z,241.94
2023-05-20T05:05:12.922Z,237.72
2023-05-20T05:06:13.016Z,236.70
2023-05-20T05:07:12.992Z,228.32
2023-05-20T05:08:13.032Z,218.65
2023-05-20T05:09:13.106Z,209.76
2023-05-20T05:10:13.112Z,213.76
2023-05-20T05:11:13.187Z,210.01
2023-05-20T05:12:13.196Z,206.99
2023-05-20T05:13:13.293Z,206.14
2023-05-20T05:14:13.309Z,212.35
2023-05-20T05:15:13.356Z,214.83
2023-05-20T05:16:13.501Z,213.49
2023-05-20T05:17:13.441Z,218.90
2023-05-20T05:18:13.457Z,219.56
2023-05-20T05:19:13.720Z,220.62
2023-05-20T05:20:13.510Z,221.75
2023-05-20T05:21:13.585Z,215.22
2023-05-20T05:22:13.584Z,211.00
2023-05-20T05:23:13.579Z,207.49
2023-05-20T05:24:13.626Z,205.46
2023-05-20T05:25:13.658Z,210.74
2023-05-20T05:26:13.705Z,218.23
2023-05-20T05:27:13.682Z,222.41
2023-05-20T05:28:13.684Z,221.99
2023-05-20T05:29:13.685Z,225.79
2023-05-20T05:30:13.708Z,230.27
2023-05-20T05:31:13.701Z,235.14
2023-05-20T05:32:13.717Z,237.30
2023-05-20T05:33:13.717Z,238.21
2023-05-20T05:34:13.758Z,237.38
2023-05-20T05:35:13.776Z,221.41
2023-05-20T05:36:13.738Z,188.22
2023-05-20T05:37:13.777Z,181.68
2023-05-20T05:38:13.845Z,188.40
2023-05-20T05:39:13.887Z,194.66
2023-05-20T05:40:13.910Z,199.88
2023-05-20T05:41:13.923Z,202.37
2023-05-20T05:42:13.943Z,202.03
2023-05-20T05:43:13.925Z,207.84
2023-05-20T05:44:14.017Z,203.11
2023-05-20T05:45:14.056Z,190.37
2023-05-20T05:46:14.109Z,177.82
2023-05-20T05:47:14.212Z,168.63
2023-05-20T05:48:14.233Z,170.48
2023-05-20T05:49:14.261Z,167.88
2023-05-20T05:50:14.362Z,167.67
2023-05-20T05:51:14.415Z,165.34
2023-05-20T05:52:14.445Z,154.06
2023-05-20T05:53:14.506Z,149.17
2023-05-20T05:54:14.544Z,155.76
2023-05-20T05:55:14.579Z,158.50
2023-05-20T05:56:14.662Z,162.74
2023-05-20T05:57:14.680Z,161.93
2023-05-20T05:58:14.698Z,157.10
2023-05-20T05:59:14.713Z,161.29
2023-05-20T06:00:14.723Z,158.19
2023-05-20T06:01:14.818Z,155.76
2023-05-20T06:02:14.854Z,159.06
2023-05-20T06:03:14.889Z,157.60
2023-05-20T06:04:14.885Z,162.33
2023-05-20T06:05:14.883Z,139.26
2023-05-20T06:06:14.900Z,123.89
2023-05-20T06:07:14.943Z,126.85
2023-05-20T06:08:14.925Z,133.14
2023-05-20T06:09:14.957Z,126.91
2023-05-20T06:10:15.010Z,126.37
2023-05-20T06:11:14.979Z,107.68
2023-05-20T06:12:15.002Z,110.25
2023-05-20T06:13:15.007Z,118.47
2023-05-20T06:14:15.040Z,125.03
2023-05-20T06:15:15.079Z,132.90
2023-05-20T06:16:15.120Z,134.11
2023-05-20T06:17:15.130Z,139.92
2023-05-20T06:18:15.139Z,142.39
2023-05-20T06:19:15.175Z,142.43
2023-05-20T06:20:15.166Z,141.66
2023-05-20T06:21:15.260Z,131.01
2023-05-20T06:22:15.303Z,138.18
2023-05-20T06:23:15.328Z,140.33
2023-05-20T06:24:15.378Z,140.67
2023-05-20T06:25:15.385Z,145.48
2023-05-20T06:26:15.449Z,147.26
2023-05-20T06:27:15.456Z,151.94
2023-05-20T06:28:15.438Z,156.07
2023-05-20T06:29:15.477Z,153.57
2023-05-20T06:30:15.541Z,154.04
2023-05-20T06:31:15.544Z,163.28
2023-05-20T06:32:15.543Z,163.48
2023-05-20T06:33:15.571Z,151.81
2023-05-20T06:34:15.597Z,147.37
2023-05-20T06:35:15.567Z,150.45
2023-05-20T06:36:15.622Z,155.86
2023-05-20T06:37:15.562Z,157.71
2023-05-20T06:38:15.600Z,153.42
2023-05-20T06:39:15.582Z,152.56
2023-05-20T06:40:15.584Z,163.10
2023-05-20T06:41:15.611Z,151.65
2023-05-20T06:42:15.564Z,138.24
2023-05-20T06:43:15.570Z,125.83
2023-05-20T06:44:15.624Z,122.85
2023-05-20T06:45:15.588Z,125.34
2023-05-20T06:46:15.650Z,134.19
2023-05-20T06:47:15.616Z,141.62
2023-05-20T06:48:15.657Z,144.55
2023-05-20T06:49:15.710Z,150.56
2023-05-20T06:50:15.730Z,148.57
2023-05-20T06:51:15.891Z,143.52
2023-05-20T06:52:15.837Z,140.31
2023-05-20T06:53:15.957Z,136.17
2023-05-20T06:54:16.016Z,123.35
2023-05-20T06:55:16.068Z,111.73
2023-05-20T06:56:16.141Z,111.15
2023-05-20T06:57:16.124Z,94.22
2023-05-20T06:58:16.212Z,93.38
2023-05-20T06:59:16.250Z,88.50
2023-05-20T07:00:16.289Z,83.24
2023-05-20T07:01:18.096Z,84.17
2023-05-20T07:02:16.411Z,40.94
2023-05-20T07:03:16.410Z,40.39
2023-05-20T07:04:16.479Z,39.18
2023-05-20T07:05:16.510Z,41.07
2023-05-20T07:06:16.551Z,49.83
2023-05-20T07:07:17.434Z,50.92
2023-05-20T07:08:16.599Z,55.68
2023-05-20T07:09:16.567Z,39.31
2023-05-20T07:10:24.299Z,50.86
2023-05-20T07:11:16.630Z,51.13
2023-05-20T07:12:16.585Z,47.29
2023-05-20T07:13:16.612Z,43.57
2023-05-20T07:14:16.555Z,53.90
2023-05-20T07:15:16.566Z,62.43
2023-05-20T07:16:16.617Z,38.54
2023-05-20T07:17:16.577Z,38.30
2023-05-20T07:18:16.574Z,25.00
2023-05-20T07:19:16.703Z,24.78
2023-05-20T07:20:16.599Z,31.65
2023-05-20T07:21:16.564Z,39.91
2023-05-20T07:22:16.563Z,47.80
2023-05-20T07:23:16.517Z,45.75
2023-05-20T07:24:16.535Z,40.73
2023-05-20T07:25:16.537Z,40.65
2023-05-20T07:26:16.554Z,47.95
2023-05-20T07:27:16.536Z,47.06
2023-05-20T07:28:16.507Z,38.01
2023-05-20T07:29:16.515Z,35.33
2023-05-20T07:30:16.498Z,31.13
2023-05-20T07:31:16.558Z,42.42
2023-05-20T07:32:16.524Z,32.61
2023-05-20T07:33:16.530Z,29.43
2023-05-20T07:34:16.592Z,36.16
2023-05-20T07:35:16.592Z,15.22
2023-05-20T07:36:16.604Z,18.96
2023-05-20T07:37:16.611Z,27.30
2023-05-20T07:38:16.613Z,38.57
2023-05-20T07:39:16.646Z,45.01
2023-05-20T07:40:16.741Z,30.71
2023-05-20T07:41:16.780Z,23.89
2023-05-20T07:42:16.810Z,34.49
2023-05-20T07:43:16.816Z,39.22
2023-05-20T07:44:16.950Z,37.76
2023-05-20T07:45:16.873Z,41.62
2023-05-20T07:46:18.077Z,46.76
2023-05-20T07:47:16.872Z,33.98
2023-05-20T07:48:16.896Z,33.04
2023-05-20T07:49:16.845Z,41.07
2023-05-20T07:50:16.856Z,50.35
2023-05-20T07:51:16.854Z,37.84
2023-05-20T07:52:16.816Z,27.94
2023-05-20T07:53:16.837Z,36.15
2023-05-20T07:54:16.800Z,47.75
2023-05-20T07:55:16.825Z,41.26
2023-05-20T07:56:16.807Z,50.84
2023-05-20T07:57:16.822Z,41.23
2023-05-20T07:58:24.448Z,41.54
2023-05-20T07:59:16.786Z,41.93
2023-05-20T08:00:16.774Z,42.68
2023-05-20T08:01:16.822Z,40.78
2023-05-20T08:02:16.806Z,34.89
2023-05-20T08:03:16.877Z,39.69
2023-05-20T08:04:16.843Z,53.70
2023-05-20T08:05:16.756Z,57.41
2023-05-20T08:06:16.779Z,62.21
2023-05-20T08:07:16.756Z,60.00
2023-05-20T08:08:16.716Z,47.56
2023-05-20T08:09:16.743Z,44.80
2023-05-20T08:10:16.700Z,50.56
2023-05-20T08:11:16.739Z,49.90
2023-05-20T08:12:16.732Z,69.87
2023-05-20T08:13:16.711Z,65.23
2023-05-20T08:14:16.720Z,61.95
2023-05-20T08:15:16.654Z,57.60
2023-05-20T08:16:16.748Z,60.45
2023-05-20T08:17:16.740Z,64.51
2023-05-20T08:18:16.663Z,61.18
2023-05-20T08:19:16.728Z,64.19
2023-05-20T08:20:16.636Z,57.04
2023-05-20T08:21:16.666Z,50.48
2023-05-20T08:22:16.642Z,63.15
2023-05-20T08:23:16.608Z,69.08
2023-05-20T08:24:16.608Z,75.49
2023-05-20T08:25:16.619Z,85.64
2023-05-20T08:26:16.599Z,66.26
2023-05-20T08:27:16.608Z,55.86
2023-05-20T08:28:16.579Z,59.17
2023-05-20T08:29:16.605Z,62.35
2023-05-20T08:30:16.622Z,70.41
2023-05-20T08:31:16.662Z,66.67
2023-05-20T08:32:16.637Z,52.05
2023-05-20T08:33:16.622Z,55.93
2023-05-20T08:34:16.664Z,56.04
2023-05-20T08:35:16.704Z,38.46
2023-05-20T08:36:16.768Z,42.21
2023-05-20T08:37:16.890Z,49.87
2023-05-20T08:38:16.896Z,28.84
2023-05-20T08:39:17.002Z,29.16
2023-05-20T08:40:17.010Z,41.21
2023-05-20T08:41:17.077Z,35.01
2023-05-20T08:42:17.079Z,29.28
2023-05-20T08:43:17.152Z,23.76
2023-05-20T08:44:17.174Z,30.22
2023-05-20T08:45:17.163Z,37.33
2023-05-20T08:46:18.300Z,34.62
2023-05-20T08:47:17.215Z,35.59
2023-05-20T08:48:17.208Z,41.21
2023-05-20T08:49:17.177Z,31.02
2023-05-20T08:50:17.244Z,33.10
2023-05-20T08:51:17.295Z,31.30
2023-05-20T08:52:17.357Z,40.24
2023-05-20T08:53:17.313Z,32.28
2023-05-20T08:54:17.348Z,37.33
2023-05-20T08:55:17.345Z,34.98
2023-05-20T08:56:17.414Z,34.28
2023-05-20T08:57:17.391Z,25.12
2023-05-20T08:58:17.475Z,24.91
2023-05-20T08:59:17.539Z,25.00
2023-05-20T09:00:17.580Z,40.35
2023-05-20T09:01:17.685Z,27.18
2023-05-20T09:02:17.784Z,12.57
2023-05-20T09:03:17.758Z,8.15
2023-05-20T09:04:17.750Z,22.25
2023-05-20T09:05:17.864Z,16.30
2023-05-20T09:06:17.902Z,20.37
2023-05-20T09:07:17.911Z,23.27
2023-05-20T09:08:17.979Z,25.00
2023-05-20T09:09:18.137Z,24.98
2023-05-20T09:10:18.143Z,42.42
2023-05-20T09:11:18.096Z,36.95
2023-05-20T09:12:18.173Z,34.01
2023-05-20T09:13:18.181Z,25.42
2023-05-20T09:14:18.176Z,31.83
2023-05-20T09:15:18.227Z,40.78
2023-05-20T09:16:18.271Z,44.88
2023-05-20T09:17:18.303Z,25.78
2023-05-20T09:18:18.399Z,26.97
2023-05-20T09:19:18.431Z,11.87
2023-05-20T09:20:18.440Z,17.62
2023-05-20T09:21:18.469Z,22.30
2023-05-20T09:22:18.541Z,24.51
2023-05-20T09:23:18.535Z,25.00
2023-05-20T09:24:18.602Z,26.87
2023-05-20T09:25:18.612Z,34.56
2023-05-20T09:26:18.619Z,36.62
2023-05-20T09:27:18.661Z,38.69
2023-05-20T09:28:18.668Z,41.98
2023-05-20T09:29:18.656Z,32.28
2023-05-20T09:30:18.713Z,20.71
2023-05-20T09:31:18.726Z,26.34
2023-05-20T09:32:18.759Z,28.73
2023-05-20T09:33:18.729Z,27.46
2023-05-20T09:34:18.784Z,34.40
2023-05-20T09:35:18.814Z,50.31
2023-05-20T09:36:18.888Z,28.51
2023-05-20T09:37:18.909Z,26.35
2023-05-20T09:38:18.930Z,31.42
2023-05-20T09:39:18.944Z,29.01
2023-05-20T09:40:19.058Z,25.00
2023-05-20T09:41:19.018Z,28.53
2023-05-20T09:42:19.056Z,40.43
2023-05-20T09:43:19.090Z,28.90
2023-05-20T09:44:19.092Z,36.29
2023-05-20T09:45:19.182Z,30.33
2023-05-20T09:46:19.168Z,48.45
2023-05-20T09:47:19.284Z,32.73
2023-05-20T09:48:19.265Z,29.23
2023-05-20T09:49:19.284Z,25.65
2023-05-20T09:50:19.369Z,25.00
2023-05-20T09:51:19.326Z,33.41
2023-05-20T09:52:21.341Z,40.82
2023-05-20T09:53:19.386Z,35.59
2023-05-20T09:54:19.441Z,40.16
2023-05-20T09:55:19.479Z,37.56
2023-05-20T09:56:19.445Z,31.05
2023-05-20T09:57:19.540Z,27.79
2023-05-20T09:58:19.584Z,23.32
2023-05-20T09:59:19.620Z,26.19
2023-05-20T10:00:19.913Z,29.08
2023-05-20T10:01:19.649Z,33.69
2023-05-20T10:02:19.756Z,28.66
2023-05-20T10:03:19.717Z,27.31
2023-05-20T10:04:19.667Z,36.09
2023-05-20T10:05:19.736Z,32.05
2023-05-20T10:06:19.735Z,30.74
2023-05-20T10:07:30.570Z,18.71
2023-05-20T10:08:20.712Z,7.32
2023-05-20T10:09:19.688Z,3.57
2023-05-20T10:10:19.721Z,5.78
2023-05-20T10:11:19.724Z,6.87
2023-05-20T10:12:19.691Z,0.00
2023-05-20T10:13:19.684Z,7.74
2023-05-20T10:14:19.679Z,22.42
2023-05-20T10:15:19.634Z,27.37
2023-05-20T10:16:19.677Z,0.00
2023-05-20T10:17:19.664Z,0.00
2023-05-20T10:18:19.672Z,0.00
2023-05-20T10:19:19.683Z,0.19
2023-05-20T10:20:19.633Z,3.03
2023-05-20T10:21:19.615Z,0.65
2023-05-20T10:22:19.656Z,4.07
2023-05-20T10:23:19.584Z,7.53
2023-05-20T10:24:19.588Z,6.66
2023-05-20T10:25:19.600Z,14.94
2023-05-20T10:26:19.646Z,27.41
2023-05-20T10:27:19.688Z,42.92
2023-05-20T10:28:19.648Z,51.55
2023-05-20T10:29:19.713Z,62.10
2023-05-20T10:30:19.791Z,54.04
2023-05-20T10:31:19.819Z,26.89
2023-05-20T10:32:19.903Z,43.62
2023-05-20T10:33:19.841Z,6.75
2023-05-20T10:34:19.914Z,3.02
2023-05-20T10:35:19.858Z,10.42
2023-05-20T10:36:19.904Z,17.68
2023-05-20T10:37:19.909Z,43.00
2023-05-20T10:38:19.956Z,40.77
2023-05-20T10:39:19.998Z,58.84
2023-05-20T10:40:20.030Z,62.79
2023-05-20T10:41:20.083Z,69.12
2023-05-20T10:42:20.087Z,68.99
2023-05-20T10:43:20.911Z,56.60
2023-05-20T10:44:20.196Z,56.80
2023-05-20T10:45:20.202Z,61.54
2023-05-20T10:46:31.192Z,63.75
2023-05-20T10:47:25.713Z,61.23
2023-05-20T10:48:21.278Z,61.61
2023-05-20T10:49:22.439Z,62.25
2023-05-20T10:50:20.240Z,50.48
2023-05-20T10:51:20.199Z,55.03
2023-05-20T10:52:20.195Z,43.94
2023-05-20T10:53:29.764Z,38.78
2023-05-20T10:54:21.187Z,33.11
2023-05-20T10:55:20.203Z,43.28
2023-05-20T10:56:20.123Z,34.81
2023-05-20T10:57:20.175Z,47.03
2023-05-20T10:58:20.136Z,48.67
2023-05-20T10:59:20.172Z,42.01
2023-05-20T11:00:20.128Z,49.91
2023-05-20T11:01:20.232Z,50.14
2023-05-20T11:02:20.123Z,43.23
2023-05-20T11:03:20.243Z,41.52
2023-05-20T11:04:20.120Z,40.00
2023-05-20T11:05:20.127Z,33.20
2023-05-20T11:06:20.139Z,25.92
2023-05-20T11:07:20.117Z,32.32
2023-05-20T11:08:28.921Z,29.72
2023-05-20T11:09:21.081Z,24.54
2023-05-20T11:10:20.093Z,12.69
2023-05-20T11:11:20.078Z,11.20
2023-05-20T11:12:20.090Z,20.85
2023-05-20T11:13:20.095Z,34.22
2023-05-20T11:14:20.148Z,33.85
2023-05-20T11:15:20.061Z,41.76
2023-05-20T11:16:20.070Z,45.64
2023-05-20T11:17:20.077Z,46.40
2023-05-20T11:18:20.077Z,46.88
2023-05-20T11:19:20.221Z,38.08
2023-05-20T11:20:20.017Z,34.54
2023-05-20T11:21:20.065Z,22.97
2023-05-20T11:22:20.105Z,14.58
2023-05-20T11:23:20.162Z,19.36
2023-05-20T11:24:20.164Z,26.55
2023-05-20T11:25:20.186Z,21.10
2023-05-20T11:26:20.228Z,27.71
2023-05-20T11:27:20.283Z,32.00
2023-05-20T11:28:20.287Z,26.19
2023-05-20T11:29:20.272Z,23.49
2023-05-20T11:30:20.335Z,26.74
2023-05-20T11:31:20.359Z,23.99
2023-05-20T11:32:20.516Z,26.57
2023-05-20T11:33:20.595Z,19.32
2023-05-20T11:34:21.095Z,33.81
2023-05-20T11:35:20.530Z,39.92
2023-05-20T11:36:27.829Z,35.41
2023-05-20T11:37:21.567Z,23.35
2023-05-20T11:38:20.546Z,25.73
2023-05-20T11:39:20.563Z,33.62
2023-05-20T11:40:20.507Z,28.83
2023-05-20T11:41:20.522Z,18.20
2023-05-20T11:42:20.571Z,16.88
2023-05-20T11:43:20.486Z,22.97
2023-05-20T11:44:20.483Z,27.90
2023-05-20T11:45:20.488Z,31.12
2023-05-20T11:46:20.572Z,36.20
2023-05-20T11:47:22.577Z,32.48
2023-05-20T11:48:20.460Z,37.42
2023-05-20T11:49:20.498Z,33.12
2023-05-20T11:50:20.542Z,31.13
2023-05-20T11:51:20.522Z,41.43
2023-05-20T11:52:20.597Z,45.00
2023-05-20T11:53:20.605Z,42.31
2023-05-20T11:54:20.638Z,35.68
2023-05-20T11:55:20.676Z,40.35
2023-05-20T11:56:20.691Z,34.14
2023-05-20T11:57:20.746Z,33.12
2023-05-20T11:58:20.705Z,29.12
2023-05-20T11:59:20.715Z,30.29
2023-05-20T12:00:20.761Z,32.24
2023-05-20T12:01:22.673Z,27.88
2023-05-20T12:02:21.056Z,37.17
2023-05-20T12:03:21.204Z,43.33
2023-05-20T12:04:21.187Z,37.49
2023-05-20T12:05:21.171Z,52.77
2023-05-20T12:06:21.156Z,54.08
2023-05-20T12:07:21.196Z,34.54
2023-05-20T12:08:21.222Z,38.08
2023-05-20T12:09:21.231Z,29.02
2023-05-20T12:10:21.304Z,25.33
2023-05-20T12:11:21.328Z,33.37
2023-05-20T12:12:21.350Z,40.46
2023-05-20T12:13:21.301Z,36.81
2023-05-20T12:14:21.403Z,42.53
2023-05-20T12:15:21.426Z,37.54
2023-05-20T12:16:21.502Z,37.25
2023-05-20T12:17:21.520Z,24.82
2023-05-20T12:18:21.551Z,28.60
2023-05-20T12:19:21.673Z,28.34
2023-05-20T12:20:21.553Z,34.72
2023-05-20T12:21:21.602Z,40.25
2023-05-20T12:22:21.621Z,46.11
2023-05-20T12:23:21.640Z,42.48
2023-05-20T12:24:21.686Z,47.70
2023-05-20T12:25:21.764Z,40.28
2023-05-20T12:26:21.720Z,33.75
2023-05-20T12:27:21.761Z,38.29
2023-05-20T12:28:21.778Z,36.11
2023-05-20T12:29:21.823Z,33.41
2023-05-20T12:30:21.854Z,33.09
2023-05-20T12:31:21.935Z,35.21
2023-05-20T12:32:21.940Z,34.81
2023-05-20T12:33:21.917Z,34.32
2023-05-20T12:34:21.963Z,35.15
2023-05-20T12:35:21.966Z,31.82
2023-05-20T12:36:22.019Z,32.91
2023-05-20T12:37:22.073Z,38.57
2023-05-20T12:38:22.142Z,44.97
2023-05-20T12:39:22.161Z,39.51